Wind Ridge, Pennsylvania
Current Conditions -  °F | °C
As of 5:53 PM on Monday 22 Dec 2014 (Local Time) from KHLG Reporting Station
Few Clouds Few Clouds  
Wind Chill: 39°   Ceiling: Unl
Heat Index: 45°   Visibility: 10mi
Dew Point: 32°   Wind: 13mph
Humidity: 60%   Direction: 80°E
Pressure: 29.95"   Gusts: NA
Location:  39.91°N, 80.43°W
Report Text: KHLG 222253Z 08011KT 10SM FEW047 07/00 A2995 RMK AO2 SLP153 T00720000
Loading
Personal Weather Stations






























Interactive Weather Map New forecast layout! Learn more

10-Day Weather Forecast

Advertisements
Track Severe Weather on mobile